Captain Cook, HI

10:27 PM HST on July 06, 2015 (GMT -1000)
Captain Cook | | Change Station
CLOSE
Current Station
Personal Weather Station
Location: Captain Cook, HI
Elevation: 915 ft
Nearby Weather Stations
Active Advisory: High Surf Advisory

Elev 915 ft 19.31 °N, 155.88 °W | Updated 27 minutes ago

Partly Cloudy
Partly Cloudy
73.7 °F
Feels Like 75 °F
N
4.0
Wind Variable Wind from SSW
Gusts 7.0 mph

Today
High -- | Low -- °F
--% Chance of Precip.
Yesterday
High -- | Low -- °F
Precip. -- in
5:50 AM 7:05 PM
Waning Gibbous, 67% visible
Pressure 29.96 in
Visibility 10.0 miles
Clouds Few 6000 ft
Heat Index 75 °F
Dew Point 65 °F
Humidity 75%
Rainfall 0.00 in
Snow Depth Not available.
UV 0.0 out of 12
Pollen Not available.
Air Quality Not available.
Flu Activity Not available.
METAR PHKO 070753Z 19005KT 10SM FEW060 27/22 A2995 RMK AO2 SLP144 T02720217

More Conditions Fewer Conditions

Pressure 29.96 in
Visibility 10.0 miles
Clouds Few 6000 ft
Heat Index 75 °F
Dew Point 65 °F
Humidity 75%
Rainfall 0.00 in
Snow Depth Not available.
UV 0.0 out of 12
Pollen Not available.
Air Quality Not available.
Flu Activity Not available.
METAR PHKO 070753Z 19005KT 10SM FEW060 27/22 A2995 RMK AO2 SLP144 T02720217

More Conditions Fewer Conditions

10-Day Weather Forecast

×

Almanac

Astronomy

Jul. 06, 2015 Rise Set
Actual Time
Civil Twilight
Nautical Twilight
Astronomical Twilight
Moon
Length of Visible Light
Length of Day
Tomorrow will be .
, % of the Moon is Illuminated

Today's Extremes

State Highs State Lows

Community

WunderPhotos

Upload Photos

1,835,758 photos uploaded!

WunderBlogs® & News

Nearby

Air Quality

  Air Quality AQ Index Pollutant
Not available.

Snow Depth

Station Depth Elevation

Earthquake Activity

City Distance Mag. Time & Date
Minimum magnitude displayed is 2.5.

Coastal Water Temperatures

Place Temperature

Stations

Nearby Weather Stations

Station Location Temp. Windchill Dew Point Humidity Wind Precip. Elev Updated Type
                   
High Surf Advisory
Statement as of 3:32 PM HST on July 06, 2015

... High surf advisory in effect until 6 PM HST Wednesday...

The National Weather Service in Honolulu has issued a high surf
advisory... which is in effect until 6 PM HST Wednesday.

* Surf... along south facing shores... 6 to 9 feet through the
evening and rising to 7 to 10 feet tonight and Tuesday.

* Timing... rising through tonight... peaking Tuesday... and
remaining elevated into Wednesday.

* Impacts... moderate... expect strong breaking waves... shore
break... and strong longshore and rip currents making swimming
difficult and dangerous.


Precautionary/preparedness actions...

Beachgoers... swimmers... and surfers should heed all advice given
by ocean safety officials and exercise caution. Boaters should
expect recreational surfers and utilizing Harbor channels to
access surfing areas.